Time;durP1;ratioP1;P1;durP2;ratioP2;P2;SDS_P1;SDS_P2;PMS_P1;PMS_P2;Temp;Humidity;BMP_temperature;BMP_pressure;BME280_temperature;BME280_humidity;BME280_pressure;Samples;Min_cycle;Max_cycle;Signal;HPM_P1;HPM_P2
2022/10/06 00:00:52;;;;;;;8.68;6.32;;;;;;;8.21;100.00;97616.63;5021438;28;20025;-73
2022/10/06 00:03:22;;;;;;;9.50;6.30;;;;;;;8.24;100.00;97624.19;5026384;28;20037;-73
2022/10/06 00:05:49;;;;;;;12.02;6.50;;;;;;;8.21;100.00;97622.91;5026922;28;20517;-72
2022/10/06 00:08:15;;;;;;;11.60;6.15;;;;;;;8.20;100.00;97629.50;5026304;28;20083;-72
2022/10/06 00:10:41;;;;;;;8.15;5.75;;;;;;;8.21;100.00;97627.56;5022213;28;20033;-72
2022/10/06 00:13:06;;;;;;;9.60;5.70;;;;;;;8.24;100.00;97637.81;5030224;28;20783;-72
2022/10/06 00:15:33;;;;;;;10.43;7.40;;;;;;;8.23;100.00;97638.97;5030649;28;20079;-73
2022/10/06 00:17:59;;;;;;;11.82;6.60;;;;;;;8.23;100.00;97634.31;5031317;28;20083;-72
2022/10/06 00:20:26;;;;;;;13.52;6.65;;;;;;;8.18;100.00;97633.69;5024917;28;20037;-72
2022/10/06 00:22:51;;;;;;;11.38;6.78;;;;;;;8.08;100.00;97643.03;5030262;28;20029;-72
2022/10/06 00:25:20;;;;;;;6.75;5.68;;;;;;;7.98;100.00;97636.00;5004853;28;20475;-72
2022/10/06 00:27:48;;;;;;;7.30;5.30;;;;;;;8.03;100.00;97637.75;5030560;28;20033;-72
2022/10/06 00:30:20;;;;;;;12.90;6.82;;;;;;;7.97;100.00;97641.78;5029254;28;20033;-72
2022/10/06 00:32:55;;;;;;;9.85;6.00;;;;;;;7.97;100.00;97645.31;5027570;28;20052;-72
2022/10/06 00:35:22;;;;;;;8.40;6.15;;;;;;;7.80;100.00;97638.00;5028310;28;20051;-70
2022/10/06 00:37:48;;;;;;;15.32;6.10;;;;;;;7.86;100.00;97654.97;5047094;28;20025;-72
2022/10/06 00:40:14;;;;;;;18.33;7.03;;;;;;;7.71;100.00;97647.34;5025324;28;21571;-73
2022/10/06 00:42:50;;;;;;;10.13;6.68;;;;;;;7.66;100.00;97657.25;5010549;28;20065;-72
2022/10/06 00:45:19;;;;;;;8.98;6.22;;;;;;;7.87;100.00;97653.03;5027004;28;20048;-72
2022/10/06 00:47:45;;;;;;;11.93;6.10;;;;;;;7.75;100.00;97651.81;5028307;28;20639;-71
2022/10/06 00:50:13;;;;;;;9.48;5.97;;;;;;;7.79;100.00;97655.47;5028149;28;20025;-72
2022/10/06 00:52:39;;;;;;;10.90;6.70;;;;;;;7.69;100.00;97655.00;5025646;28;20449;-72
2022/10/06 00:55:08;;;;;;;11.57;7.35;;;;;;;7.62;100.00;97652.81;5029760;28;20104;-70
2022/10/06 00:57:39;;;;;;;8.57;6.30;;;;;;;7.60;100.00;97655.84;5021495;28;20041;-71
2022/10/06 01:00:06;;;;;;;10.23;6.90;;;;;;;7.59;100.00;97656.97;5029915;28;20033;-73
2022/10/06 01:02:41;;;;;;;8.45;5.85;;;;;;;7.74;100.00;97665.75;5028650;28;20360;-71
2022/10/06 01:05:13;;;;;;;8.98;5.63;;;;;;;7.87;100.00;97653.03;5024994;28;20033;-72
2022/10/06 01:07:39;;;;;;;8.68;5.78;;;;;;;7.83;100.00;97651.00;5021630;28;20038;-71
2022/10/06 01:10:05;;;;;;;8.68;5.53;;;;;;;7.84;100.00;97649.06;5030550;28;20044;-72
2022/10/06 01:12:32;;;;;;;8.80;5.70;;;;;;;7.79;100.00;97647.28;5022578;28;20037;-72
2022/10/06 01:14:58;;;;;;;7.32;4.55;;;;;;;7.79;100.00;97655.47;5028405;28;20133;-72
2022/10/06 01:17:37;;;;;;;6.75;5.18;;;;;;;7.78;100.00;97653.09;5023844;28;20100;-70
2022/10/06 01:20:02;;;;;;;7.13;5.35;;;;;;;7.76;100.00;97653.41;5028473;28;20025;-72
2022/10/06 01:22:31;;;;;;;8.60;4.68;;;;;;;7.77;100.00;97648.75;5027313;28;20139;-72
2022/10/06 01:24:57;;;;;;;8.48;4.80;;;;;;;7.70;100.00;97654.69;5028453;28;20026;-72
2022/10/06 01:27:24;;;;;;;7.75;4.72;;;;;;;7.63;100.00;97648.94;5025707;28;20036;-71
2022/10/06 01:29:52;;;;;;;10.30;5.15;;;;;;;7.69;100.00;97657.75;5025508;28;20410;-71
2022/10/06 01:32:19;;;;;;;13.68;6.50;;;;;;;7.70;100.00;97657.41;5024592;28;20063;-71
2022/10/06 01:34:44;;;;;;;8.10;5.68;;;;;;;7.74;100.00;97660.28;5029728;28;20037;-71
2022/10/06 01:37:10;;;;;;;8.80;5.13;;;;;;;7.80;100.00;97662.53;5026981;28;20048;-71
2022/10/06 01:39:35;;;;;;;13.00;5.18;;;;;;;7.79;100.00;97663.66;5021552;28;20037;-72
2022/10/06 01:42:01;;;;;;;9.60;5.40;;;;;;;7.63;100.00;97663.38;5009523;28;20029;-71
2022/10/06 01:44:26;;;;;;;7.22;5.05;;;;;;;7.65;100.00;97666.59;5025097;28;20151;-71
2022/10/06 01:46:51;;;;;;;7.25;5.20;;;;;;;7.58;100.00;97666.28;5026820;28;20388;-71
2022/10/06 01:49:17;;;;;;;11.75;4.35;;;;;;;7.58;100.00;97665.47;5027103;28;20033;-70
2022/10/06 01:51:45;;;;;;;10.02;4.78;;;;;;;7.59;100.00;97675.25;5025675;28;20514;-70
2022/10/06 01:54:10;;;;;;;7.68;4.93;;;;;;;7.61;100.00;97673.00;5023648;28;20030;-71
2022/10/06 01:56:35;;;;;;;7.43;4.72;;;;;;;7.60;100.00;97679.59;5020801;28;20490;-72
2022/10/06 01:59:01;;;;;;;6.05;4.60;;;;;;;7.56;100.00;97678.63;5023765;28;20035;-71
2022/10/06 02:01:26;;;;;;;9.82;4.75;;;;;;;7.59;100.00;97670.59;5027091;28;20033;-72
2022/10/06 02:03:52;;;;;;;13.93;6.05;;;;;;;7.62;100.00;97669.94;5025442;28;20030;-70
2022/10/06 02:06:17;;;;;;;7.05;4.90;;;;;;;7.60;100.00;97674.94;5039701;28;20055;-71
2022/10/06 02:08:43;;;;;;;10.32;4.78;;;;;;;7.52;100.00;97673.00;5064401;28;20030;-72
2022/10/06 02:11:09;;;;;;;6.43;4.93;;;;;;;7.59;100.00;97677.97;5031205;28;20525;-71
2022/10/06 02:13:36;;;;;;;8.48;4.75;;;;;;;7.55;100.00;97675.09;5037491;28;20045;-71
2022/10/06 02:16:02;;;;;;;9.30;5.05;;;;;;;7.54;100.00;97673.47;5022580;28;20467;-71
2022/10/06 02:18:28;;;;;;;9.60;5.07;;;;;;;7.54;100.00;97678.94;5024436;28;20071;-72
2022/10/06 02:20:53;;;;;;;8.55;4.78;;;;;;;7.56;100.00;97682.16;5022106;28;20079;-72
2022/10/06 02:23:19;;;;;;;8.90;4.63;;;;;;;7.58;100.00;97684.53;5023264;28;20033;-73
2022/10/06 02:25:44;;;;;;;9.15;4.78;;;;;;;7.59;100.00;97680.69;5022136;28;20029;-70
2022/10/06 02:28:09;;;;;;;7.82;4.60;;;;;;;7.57;100.00;97678.28;5026205;28;20029;-71
2022/10/06 02:30:35;;;;;;;8.32;4.68;;;;;;;7.49;100.00;97690.03;5019732;28;20057;-73
2022/10/06 02:33:01;;;;;;;10.30;5.85;;;;;;;7.37;100.00;97684.41;5016621;28;20033;-74
2022/10/06 02:35:27;;;;;;;8.70;4.40;;;;;;;7.36;100.00;97696.44;5035864;28;20028;-75
2022/10/06 02:37:52;;;;;;;12.00;5.13;;;;;;;7.36;100.00;97705.41;5052751;28;20162;-74
2022/10/06 02:40:18;;;;;;;9.02;4.50;;;;;;;7.39;100.00;97701.25;5031703;28;20490;-73
2022/10/06 02:42:44;;;;;;;6.72;4.47;;;;;;;7.36;100.00;97701.88;5031278;28;20108;-72
2022/10/06 02:45:09;;;;;;;6.15;4.47;;;;;;;7.38;100.00;97702.34;5031296;28;20430;-74
2022/10/06 02:47:35;;;;;;;8.25;4.20;;;;;;;7.42;100.00;97712.31;5012075;28;20036;-71
2022/10/06 02:50:04;;;;;;;9.55;4.63;;;;;;;7.44;100.00;97722.91;5023271;28;20394;-71
2022/10/06 02:52:32;;;;;;;7.10;4.55;;;;;;;7.44;100.00;97726.41;5031053;28;20444;-74
2022/10/06 02:54:58;;;;;;;8.07;4.38;;;;;;;7.42;100.00;97731.38;5029864;28;20060;-71
2022/10/06 02:57:23;;;;;;;8.75;4.55;;;;;;;7.40;100.00;97730.09;5027760;28;20065;-71
2022/10/06 02:59:49;;;;;;;5.50;4.15;;;;;;;7.31;100.00;97726.56;5030855;28;20079;-71
2022/10/06 03:02:14;;;;;;;5.68;4.20;;;;;;;7.26;100.00;97730.25;5034207;28;20052;-71
2022/10/06 03:04:40;;;;;;;7.03;4.35;;;;;;;7.28;100.00;97730.75;5034740;28;20025;-71
2022/10/06 03:07:05;;;;;;;6.95;4.60;;;;;;;7.27;100.00;97727.22;5014756;28;20029;-72
2022/10/06 03:09:30;;;;;;;6.65;4.80;;;;;;;7.25;100.00;97731.38;5015862;28;20037;-70
2022/10/06 03:11:56;;;;;;;6.35;4.75;;;;;;;7.15;100.00;97729.78;5030151;28;20063;-71
2022/10/06 03:14:21;;;;;;;10.95;5.30;;;;;;;7.08;100.00;97738.41;5030935;28;20116;-70
2022/10/06 03:16:47;;;;;;;9.95;5.05;;;;;;;7.12;100.00;97732.34;5026642;28;20052;-71
2022/10/06 03:19:12;;;;;;;8.32;5.05;;;;;;;7.09;100.00;97728.31;5021324;28;20394;-71
2022/10/06 03:21:41;;;;;;;7.70;5.28;;;;;;;6.98;100.00;97737.91;5031010;28;20029;-72
2022/10/06 03:24:07;;;;;;;7.88;4.55;;;;;;;6.93;100.00;97744.28;5031275;28;20338;-72
2022/10/06 03:26:36;;;;;;;9.45;5.30;;;;;;;7.07;100.00;97747.69;5011375;28;20116;-76
2022/10/06 03:29:02;;;;;;;7.88;4.70;;;;;;;7.02;100.00;97749.75;5017394;28;20037;-74
2022/10/06 03:31:28;;;;;;;9.00;4.68;;;;;;;7.05;100.00;97751.84;5029541;28;20029;-72
2022/10/06 03:33:55;;;;;;;6.93;4.85;;;;;;;7.08;100.00;97748.50;5030271;28;20435;-73
2022/10/06 03:36:22;;;;;;;9.20;4.90;;;;;;;7.12;100.00;97756.84;5028715;28;20025;-72
2022/10/06 03:38:48;;;;;;;6.45;4.55;;;;;;;7.13;100.00;97755.72;5026589;28;20030;-71
2022/10/06 03:41:22;;;;;;;6.40;4.45;;;;;;;7.17;100.00;97767.59;5030203;28;20079;-72
2022/10/06 03:43:52;;;;;;;6.47;4.40;;;;;;;7.21;100.00;97761.19;5030460;28;20040;-72
2022/10/06 03:46:20;;;;;;;9.65;4.40;;;;;;;7.22;100.00;97765.53;5032788;28;20487;-73
2022/10/06 03:48:47;;;;;;;8.02;5.05;;;;;;;7.18;100.00;97769.97;5031712;28;20091;-74
2022/10/06 03:51:26;;;;;;;5.40;4.55;;;;;;;7.12;100.00;97759.56;5032748;28;20025;-71
2022/10/06 03:53:52;;;;;;;7.07;3.70;;;;;;;7.11;100.00;97768.84;5014398;28;20091;-73
2022/10/06 03:56:20;;;;;;;11.85;4.45;;;;;;;7.13;100.00;97770.16;5033334;28;20515;-73
2022/10/06 03:58:52;;;;;;;9.85;5.30;;;;;;;7.16;100.00;97771.44;5032480;28;20030;-72
2022/10/06 04:01:24;;;;;;;6.35;4.50;;;;;;;7.06;100.00;97781.50;5033768;28;20491;-72
2022/10/06 04:03:50;;;;;;;10.73;4.10;;;;;;;7.11;100.00;97780.53;5029332;28;20041;-71
2022/10/06 04:06:17;;;;;;;7.25;4.38;;;;;;;7.11;100.00;97787.94;5033627;28;20138;-71
2022/10/06 04:08:45;;;;;;;12.75;4.63;;;;;;;7.03;100.00;97784.88;5021920;28;20088;-72
2022/10/06 04:11:17;;;;;;;7.05;4.35;;;;;;;6.99;100.00;97785.84;5033715;28;20033;-72
2022/10/06 04:13:44;;;;;;;9.27;5.72;;;;;;;6.87;100.00;97784.50;5032103;28;20033;-71
2022/10/06 04:16:21;;;;;;;7.22;4.97;;;;;;;6.93;100.00;97790.59;5032948;28;20029;-71
2022/10/06 04:18:55;;;;;;;8.57;4.55;;;;;;;6.97;100.00;97788.88;5034030;28;20036;-72
2022/10/06 04:21:22;;;;;;;7.70;5.57;;;;;;;6.94;100.00;97791.41;5033613;28;20041;-72
2022/10/06 04:23:48;;;;;;;7.63;4.68;;;;;;;6.95;100.00;97796.56;5032909;28;20037;-70
2022/10/06 04:26:19;;;;;;;15.05;6.15;;;;;;;6.96;100.00;97806.31;5025064;28;20816;-71
2022/10/06 04:28:45;;;;;;;6.22;4.35;;;;;;;6.97;100.00;97809.84;5033682;28;20033;-73
2022/10/06 04:31:15;;;;;;;7.30;4.07;;;;;;;6.99;100.00;97804.91;5033373;28;20029;-71
2022/10/06 04:33:41;;;;;;;;;;;;;;;6.77;100.00;97803.84;5032704;28;20513;-71
2022/10/06 04:36:09;;;;;;;11.48;5.15;;;;;;;6.49;100.00;97803.25;5028419;28;19921;-72
2022/10/06 04:38:35;;;;;;;10.38;5.07;;;;;;;6.30;100.00;97811.63;5033582;28;20120;-71
2022/10/06 04:41:05;;;;;;;8.75;5.07;;;;;;;6.32;100.00;97807.47;5033161;28;20108;-71
2022/10/06 04:43:32;;;;;;;5.05;4.53;;;;;;;6.43;100.00;97816.19;5031188;28;20136;-71
2022/10/06 04:45:58;;;;;;;10.77;4.82;;;;;;;6.47;100.00;97813.66;5031262;28;20097;-74
2022/10/06 04:48:26;;;;;;;7.30;4.88;;;;;;;6.51;100.00;97820.06;5034526;28;20056;-73
2022/10/06 04:50:59;;;;;;;7.80;5.45;;;;;;;6.58;100.00;97828.59;5036743;28;20811;-73
2022/10/06 04:53:25;;;;;;;7.05;4.93;;;;;;;6.62;100.00;97824.13;5031566;28;20030;-73
2022/10/06 04:56:05;;;;;;;9.35;5.35;;;;;;;6.70;100.00;97833.47;5027283;28;20064;-74
2022/10/06 04:58:33;;;;;;;10.18;5.35;;;;;;;6.78;100.00;97834.59;5033713;28;20033;-73
2022/10/06 05:00:59;;;;;;;8.75;5.15;;;;;;;6.72;100.00;97823.06;5028938;28;20041;-73
2022/10/06 05:03:27;;;;;;;8.00;4.97;;;;;;;6.72;100.00;97836.66;5036240;28;20100;-73
2022/10/06 05:06:09;;;;;;;6.03;4.93;;;;;;;6.76;100.00;97839.56;5034422;28;20029;-71
2022/10/06 05:08:35;;;;;;;8.93;5.05;;;;;;;6.74;100.00;97848.03;5034795;28;20025;-71
2022/10/06 05:11:02;;;;;;;8.18;5.05;;;;;;;6.75;100.00;97851.56;5031976;28;20386;-73
2022/10/06 05:13:28;;;;;;;20.73;5.72;;;;;;;6.84;100.00;97855.94;5026419;28;20025;-73
2022/10/06 05:15:58;;;;;;;11.98;5.20;;;;;;;6.90;100.00;97856.59;5032387;28;20360;-73
2022/10/06 05:18:24;;;;;;;;;;;;;;;6.95;100.00;97855.66;5035728;28;20414;-72
2022/10/06 05:21:29;;;;;;;9.35;5.03;;;;;;;6.94;100.00;97859.50;5034199;28;19915;-73
2022/10/06 05:23:55;;;;;;;10.45;5.00;;;;;;;6.88;100.00;97859.63;5029776;28;20109;-74
2022/10/06 05:26:22;;;;;;;8.80;4.93;;;;;;;6.68;100.00;97863.72;5004192;28;20065;-73
2022/10/06 05:28:48;;;;;;;6.38;4.47;;;;;;;6.69;100.00;97867.22;5022680;28;20060;-72
2022/10/06 05:31:20;;;;;;;7.85;5.05;;;;;;;6.69;100.00;97872.69;5029209;28;20030;-73
2022/10/06 05:33:46;;;;;;;13.60;5.50;;;;;;;6.79;100.00;97882.47;5034298;28;20091;-73
2022/10/06 05:36:15;;;;;;;6.70;4.43;;;;;;;6.84;100.00;97879.63;5028698;28;20026;-71
2022/10/06 05:38:42;;;;;;;14.40;5.20;;;;;;;6.87;100.00;97876.28;5015598;28;20052;-71
2022/10/06 05:41:14;;;;;;;11.27;5.70;;;;;;;6.77;100.00;97882.81;5024063;28;20091;-70
2022/10/06 05:43:40;;;;;;;11.05;5.00;;;;;;;6.91;100.00;97887.38;5027284;28;20045;-71
2022/10/06 05:46:11;;;;;;;9.32;5.05;;;;;;;7.08;100.00;97885.50;5017561;28;20490;-70
2022/10/06 05:48:36;;;;;;;8.98;5.00;;;;;;;7.18;100.00;97898.03;5017629;28;20076;-70
2022/10/06 05:51:05;;;;;;;17.08;5.38;;;;;;;7.38;100.00;97907.59;5003418;28;20042;-70
2022/10/06 05:53:32;;;;;;;12.50;4.32;;;;;;;7.51;100.00;97896.88;5006624;28;20050;-69
2022/10/06 05:56:03;;;;;;;13.18;4.95;;;;;;;7.69;100.00;97900.44;5044494;28;20048;-70
2022/10/06 05:58:28;;;;;;;10.90;5.53;;;;;;;7.87;100.00;97898.53;5016275;28;20057;-71
2022/10/06 06:00:54;;;;;;;11.32;5.85;;;;;;;7.72;100.00;97905.25;5003093;28;20042;-70
2022/10/06 06:03:19;;;;;;;7.80;4.35;;;;;;;7.91;100.00;97908.50;4990986;28;20080;-69
2022/10/06 06:05:44;;;;;;;8.55;4.13;;;;;;;8.14;100.00;97897.41;5002710;28;20042;-70
2022/10/06 06:08:10;;;;;;;5.65;3.92;;;;;;;8.43;100.00;97905.00;4997761;28;20057;-70
2022/10/06 06:10:36;;;;;;;11.52;4.18;;;;;;;8.80;100.00;97905.41;5019336;28;20444;-70
2022/10/06 06:13:02;;;;;;;8.18;4.38;;;;;;;9.31;100.00;97909.09;5008413;28;20042;-71
2022/10/06 06:18:12;;;;;;;29.10;16.70;;;;;;;10.53;100.00;97904.72;4994904;28;20041;-69
2022/10/06 06:20:37;;;;;;;14.50;7.82;;;;;;;11.26;100.00;97904.09;5001845;28;20103;-69
2022/10/06 06:23:03;;;;;;;9.60;4.90;;;;;;;11.91;100.00;97911.66;5015861;28;20042;-70
2022/10/06 06:25:28;;;;;;;9.30;4.57;;;;;;;12.72;100.00;97913.59;5013573;28;20409;-70
2022/10/06 06:27:54;;;;;;;9.32;3.63;;;;;;;13.30;100.00;97919.41;5002527;28;20117;-71
2022/10/06 06:30:20;;;;;;;20.40;13.65;;;;;;;13.43;100.00;97919.34;4996828;28;20050;-70
2022/10/06 06:32:45;;;;;;;14.73;12.52;;;;;;;13.90;100.00;97918.50;4998078;28;20046;-70
2022/10/06 06:35:11;;;;;;;12.05;6.75;;;;;;;14.26;100.00;97931.13;4996921;28;20073;-70
2022/10/06 06:37:38;;;;;;;7.82;5.13;;;;;;;14.65;100.00;97931.16;5001386;28;20046;-69
2022/10/06 06:40:04;;;;;;;6.72;4.70;;;;;;;15.31;95.08;97933.94;4999676;28;20442;-70
2022/10/06 06:42:30;;;;;;;8.15;3.67;;;;;;;16.44;89.48;97943.59;4997471;28;20045;-69
2022/10/06 06:44:55;;;;;;;10.52;3.58;;;;;;;17.05;85.10;97938.81;5001987;28;20100;-69
2022/10/06 06:47:21;;;;;;;7.30;3.75;;;;;;;16.61;87.28;97937.47;4990809;28;20061;-70
2022/10/06 06:49:47;;;;;;;22.38;9.52;;;;;;;16.29;93.33;97939.03;5001755;28;20107;-70
2022/10/06 06:52:13;;;;;;;8.38;5.15;;;;;;;17.17;87.43;97951.56;4995480;28;20038;-70
2022/10/06 06:54:39;;;;;;;8.55;4.20;;;;;;;16.57;90.58;97939.41;5001469;28;20073;-69
2022/10/06 06:57:05;;;;;;;7.63;3.13;;;;;;;15.95;98.02;97950.78;5008047;28;20076;-71
2022/10/06 06:59:32;;;;;;;6.13;3.13;;;;;;;16.83;95.98;97948.81;5001835;28;20046;-71
2022/10/06 07:01:58;;;;;;;5.85;2.80;;;;;;;18.11;87.54;97962.28;4998410;28;20041;-71
2022/10/06 07:04:23;;;;;;;5.50;2.72;;;;;;;19.40;80.46;97962.03;4995562;28;20507;-72
2022/10/06 07:06:56;;;;;;;11.63;3.80;;;;;;;19.11;77.58;97961.19;5001704;28;20502;-70
2022/10/06 07:09:24;;;;;;;6.00;2.40;;;;;;;18.37;82.16;97951.34;4997999;28;20050;-71
2022/10/06 07:11:50;;;;;;;9.90;2.70;;;;;;;18.33;83.99;97957.66;5001788;28;20042;-71
2022/10/06 07:14:17;;;;;;;5.10;2.35;;;;;;;17.98;84.05;97965.75;4990269;28;20041;-71
2022/10/06 07:25:10;;;;;;;6.30;2.75;;;;;;;16.06;100.00;97967.53;5021658;28;20057;-72
2022/10/06 07:27:42;;;;;;;8.93;3.28;;;;;;;17.34;97.91;97964.78;5022756;28;20045;-70
2022/10/06 07:30:17;;;;;;;11.13;3.85;;;;;;;18.18;91.38;97972.63;5020081;28;20041;-69
2022/10/06 07:32:44;;;;;;;10.30;4.57;;;;;;;17.81;93.53;97967.16;5024717;28;20649;-70
2022/10/06 07:35:10;;;;;;;10.63;5.22;;;;;;;17.43;92.35;97963.66;5010365;28;20098;-70
2022/10/06 07:37:36;;;;;;;6.60;3.45;;;;;;;17.20;98.69;97970.97;5017680;28;20133;-70
2022/10/06 07:40:04;;;;;;;6.45;3.33;;;;;;;16.87;100.00;97959.94;5023077;28;20047;-71
2022/10/06 07:42:29;;;;;;;22.77;12.35;;;;;;;17.79;93.64;97970.34;5023443;28;20045;-69
2022/10/06 07:47:39;;;;;;;4.88;2.45;;;;;;;17.09;100.00;97972.06;5023363;28;20132;-71
2022/10/06 07:50:06;;;;;;;5.07;2.45;;;;;;;17.48;94.47;97966.88;5020411;28;20124;-71
2022/10/06 07:52:35;;;;;;;5.25;2.38;;;;;;;18.57;87.16;97974.03;5020798;28;20402;-71
2022/10/06 07:55:00;;;;;;;3.92;2.38;;;;;;;18.27;88.52;97972.28;5025303;28;20037;-71
2022/10/06 07:57:29;;;;;;;4.20;2.38;;;;;;;18.87;86.83;97973.78;5016248;28;20414;-71
2022/10/06 07:59:54;;;;;;;5.68;2.70;;;;;;;19.18;83.43;97980.63;5061280;23;20037;-73
2022/10/06 08:02:22;;;;;;;6.13;2.88;;;;;;;20.05;80.19;97976.75;4987067;28;20055;-73
2022/10/06 08:04:47;;;;;;;4.60;2.25;;;;;;;20.44;76.62;97980.69;4999415;28;20038;-74
2022/10/06 08:07:12;;;;;;;7.03;2.70;;;;;;;20.91;73.79;97975.78;4997061;28;20046;-74
2022/10/06 08:09:38;;;;;;;5.10;2.33;;;;;;;21.09;73.63;97983.25;4993944;28;20042;-71
2022/10/06 08:12:31;;;;;;;13.57;9.02;;;;;;;20.76;76.02;97982.59;4977133;28;20034;-77
2022/10/06 08:14:49;;;;;;;6.65;2.45;;;;;;;20.26;79.08;97977.94;4990054;28;20154;-73
2022/10/06 08:17:15;;;;;;;7.35;3.10;;;;;;;20.88;75.69;97976.56;4980714;28;20137;-72
2022/10/06 08:19:40;;;;;;;6.35;2.35;;;;;;;21.15;72.41;97981.63;4975134;28;20364;-71
2022/10/06 08:22:06;;;;;;;6.20;2.85;;;;;;;21.16;72.27;97988.78;4966360;28;20053;-70
2022/10/06 08:24:31;;;;;;;9.32;2.78;;;;;;;19.42;82.06;97984.66;4970484;28;20050;-72
2022/10/06 08:26:57;;;;;;;10.75;2.42;;;;;;;20.22;79.65;97980.72;4967154;28;20047;-72
2022/10/06 08:29:22;;;;;;;5.45;2.20;;;;;;;21.29;71.83;97978.75;4968774;28;20055;-71
2022/10/06 08:31:48;;;;;;;7.57;2.92;;;;;;;21.88;69.22;97979.97;4969720;28;20053;-72
2022/10/06 08:34:13;;;;;;;7.22;3.25;;;;;;;21.02;73.65;97980.50;4966967;28;20093;-72
2022/10/06 08:36:39;;;;;;;5.90;2.30;;;;;;;21.62;72.30;97982.16;4971240;28;20074;-71
2022/10/06 08:39:06;;;;;;;5.85;2.80;;;;;;;22.56;64.39;97992.50;4970876;28;20049;-78
2022/10/06 08:41:31;;;;;;;11.13;3.67;;;;;;;24.58;57.79;97991.97;4988738;28;20070;-71
2022/10/06 08:44:15;;;;;;;5.10;2.70;;;;;;;25.13;51.98;97988.88;4988444;28;20042;-71
2022/10/06 08:46:49;;;;;;;10.30;3.00;;;;;;;22.52;62.50;97973.78;4970626;28;20092;-70
2022/10/06 08:49:19;;;;;;;6.20;2.60;;;;;;;21.69;69.37;97975.72;4980844;28;20042;-70
2022/10/06 08:51:47;;;;;;;4.88;3.05;;;;;;;20.37;77.04;97972.34;4975882;28;20042;-72
2022/10/06 08:54:25;;;;;;;4.82;3.20;;;;;;;21.96;70.77;97976.69;4963865;28;20074;-73
2022/10/06 08:57:12;;;;;;;5.65;2.78;;;;;;;24.30;61.58;97981.28;4950990;28;20050;-71
2022/10/06 08:59:38;;;;;;;6.20;3.10;;;;;;;25.38;55.46;97977.94;4971219;28;20399;-72
2022/10/06 09:02:20;;;;;;;8.27;3.55;;;;;;;23.17;59.66;97983.41;4962400;28;20054;-78
2022/10/06 09:04:48;;;;;;;5.45;3.38;;;;;;;20.80;71.82;97973.03;4959285;28;20550;-72
2022/10/06 09:07:23;;;;;;;7.10;3.10;;;;;;;22.53;67.34;97980.97;4947002;28;20047;-74
2022/10/06 09:09:55;;;;;;;7.65;2.97;;;;;;;24.46;58.40;97983.41;4972501;28;20042;-73
2022/10/06 09:12:34;;;;;;;8.35;3.33;;;;;;;25.65;53.01;97978.94;4976125;28;20035;-72
2022/10/06 09:15:31;;;;;;;6.55;3.33;;;;;;;26.46;50.41;97980.13;4970355;28;20053;-71
2022/10/06 09:18:18;;;;;;;7.63;2.70;;;;;;;26.63;49.23;97981.69;4970443;28;20046;-70
2022/10/06 09:21:02;;;;;;;4.38;2.80;;;;;;;26.50;49.92;97986.44;4975922;28;20172;-72
2022/10/06 09:23:46;;;;;;;6.93;2.80;;;;;;;26.41;49.14;97983.47;4957291;28;20094;-72
2022/10/06 09:26:15;;;;;;;6.97;2.33;;;;;;;26.51;47.71;97982.41;4967765;28;20042;-72
2022/10/06 09:28:44;;;;;;;7.20;2.83;;;;;;;26.15;49.67;97983.34;4977418;28;20045;-71
2022/10/06 09:31:30;;;;;;;12.25;2.47;;;;;;;26.77;48.75;97980.50;4990419;28;20042;-76
2022/10/06 09:34:12;;;;;;;5.43;2.50;;;;;;;26.97;47.87;97983.13;4990169;28;20129;-73
2022/10/06 09:37:01;;;;;;;9.52;2.40;;;;;;;26.89;47.26;97985.38;5017074;28;20053;-72
2022/10/06 09:39:37;;;;;;;6.25;2.47;;;;;;;25.82;50.49;97986.16;4971925;28;20511;-72
2022/10/06 09:42:19;;;;;;;12.45;2.92;;;;;;;24.53;56.63;97981.28;4966078;28;20043;-75
2022/10/06 09:45:30;;;;;;;5.70;2.63;;;;;;;25.41;52.91;97989.50;4955363;28;20051;-72
2022/10/06 09:48:12;;;;;;;5.53;2.60;;;;;;;24.27;56.13;97985.72;4986602;28;20045;-72
2022/10/06 09:50:38;;;;;;;5.32;2.60;;;;;;;24.93;54.17;97983.28;4967707;28;20051;-72
2022/10/06 09:53:09;;;;;;;6.75;2.45;;;;;;;24.74;55.92;97982.88;4947567;28;20054;-79
2022/10/06 09:55:37;;;;;;;5.55;2.45;;;;;;;25.38;52.02;97979.94;4955245;28;20479;-72
2022/10/06 09:58:19;;;;;;;5.05;2.60;;;;;;;25.32;53.02;97981.69;4988857;28;20052;-69
2022/10/06 10:00:46;;;;;;;6.72;2.55;;;;;;;25.28;52.65;97978.16;4971046;28;20134;-65
2022/10/06 10:03:12;;;;;;;7.70;2.80;;;;;;;25.97;50.57;97971.78;4958375;28;20050;-66
2022/10/06 10:05:47;;;;;;;9.30;2.60;;;;;;;26.97;48.86;97968.28;4954113;28;20043;-64
2022/10/06 10:08:22;;;;;;;4.95;2.10;;;;;;;26.21;52.00;97972.38;4942117;28;20043;-66
2022/10/06 10:10:49;;;;;;;4.20;2.17;;;;;;;26.01;53.30;97969.69;4946084;28;20055;-64
2022/10/06 10:13:23;;;;;;;8.60;2.22;;;;;;;26.24;53.51;97965.88;4948354;28;20146;-65
2022/10/06 10:15:58;;;;;;;6.10;2.22;;;;;;;25.35;53.46;97970.41;4971372;28;20062;-66
2022/10/06 10:18:27;;;;;;;5.70;2.20;;;;;;;25.78;54.27;97959.38;4971991;28;20543;-67
2022/10/06 10:21:04;;;;;;;7.40;2.50;;;;;;;25.41;53.82;97962.25;4972204;28;20086;-67
2022/10/06 10:23:37;;;;;;;6.32;2.65;;;;;;;24.87;56.64;97957.78;4962839;28;20066;-64
2022/10/06 10:26:12;;;;;;;4.82;2.70;;;;;;;24.49;56.33;97960.94;4946619;28;20067;-67
2022/10/06 10:28:56;;;;;;;5.78;2.53;;;;;;;24.40;58.15;97963.50;4958771;28;20155;-66
2022/10/06 10:31:40;;;;;;;5.28;2.80;;;;;;;24.01;58.58;97957.38;4951470;28;20055;-65
2022/10/06 10:34:40;;;;;;;8.32;3.15;;;;;;;24.66;57.92;97958.22;4958496;28;20043;-66
2022/10/06 10:37:18;;;;;;;9.32;2.25;;;;;;;24.62;57.60;97952.69;4939529;28;20530;-66
2022/10/06 10:40:09;;;;;;;8.93;3.20;;;;;;;24.61;57.34;97956.72;4944807;28;20125;-64
2022/10/06 10:42:40;;;;;;;4.38;2.33;;;;;;;24.64;57.65;97961.47;4960055;28;20047;-63
2022/10/06 10:45:16;;;;;;;5.55;2.60;;;;;;;24.96;58.11;97951.59;4979641;28;20519;-67
2022/10/06 10:47:44;;;;;;;6.97;3.35;;;;;;;24.50;58.96;97962.50;4952457;28;20046;-64
2022/10/06 10:50:28;;;;;;;5.57;2.33;;;;;;;24.63;57.80;97954.25;4957265;28;20046;-67
2022/10/06 10:53:00;;;;;;;8.80;2.60;;;;;;;25.02;56.43;97952.66;4962340;28;20043;-67
2022/10/06 10:55:26;;;;;;;5.70;2.58;;;;;;;24.81;58.63;97945.50;4955732;28;20089;-67
2022/10/06 10:57:55;;;;;;;4.95;2.42;;;;;;;24.83;59.62;97951.47;4974242;28;20046;-67
2022/10/06 11:00:26;;;;;;;6.68;2.85;;;;;;;24.49;59.10;97951.72;4965340;28;20051;-70
2022/10/06 11:02:55;;;;;;;5.93;3.00;;;;;;;24.19;60.17;97953.47;4968681;28;20499;-67
2022/10/06 11:05:47;;;;;;;6.30;2.72;;;;;;;24.92;58.34;97948.88;4964056;28;20054;-67
2022/10/06 11:08:36;;;;;;;6.72;2.35;;;;;;;25.30;55.64;97947.66;4969646;28;20042;-67
2022/10/06 11:11:22;;;;;;;5.82;2.45;;;;;;;25.40;52.65;97954.28;4962783;28;20125;-69
2022/10/06 11:13:53;;;;;;;5.63;2.33;;;;;;;24.85;54.74;97953.81;4974665;28;20085;-68
2022/10/06 11:16:50;;;;;;;6.68;2.30;;;;;;;24.89;55.35;97951.75;4966622;28;20039;-68
2022/10/06 11:19:35;;;;;;;8.07;1.95;;;;;;;25.84;51.67;97943.59;4980066;28;20383;-66
2022/10/06 11:22:33;;;;;;;5.20;2.38;;;;;;;26.52;48.98;97951.06;4977447;28;20447;-67
2022/10/06 11:25:27;;;;;;;7.07;2.95;;;;;;;26.16;49.60;97954.03;4947991;28;20410;-71
2022/10/06 11:27:59;;;;;;;10.90;2.40;;;;;;;25.70;50.39;97948.34;4980541;28;20036;-68
2022/10/06 11:30:25;;;;;;;10.60;2.47;;;;;;;25.94;49.99;97946.16;4938234;28;20055;-68
2022/10/06 11:33:23;;;;;;;4.80;2.25;;;;;;;25.65;50.17;97934.06;4950870;28;20074;-68
2022/10/06 11:35:48;;;;;;;3.97;2.30;;;;;;;25.88;50.01;97938.69;5005906;28;20066;-68
2022/10/06 11:38:34;;;;;;;7.20;2.63;;;;;;;26.22;49.94;97937.47;5011529;28;20049;-69
2022/10/06 11:41:07;;;;;;;5.95;2.17;;;;;;;26.03;49.28;97927.91;4993886;28;20133;-69
2022/10/06 11:43:47;;;;;;;5.72;2.20;;;;;;;26.73;46.77;97922.84;5001207;28;20247;-70
2022/10/06 11:46:19;;;;;;;5.95;2.30;;;;;;;27.41;44.93;97932.84;4985561;28;20390;-68
2022/10/06 11:48:45;;;;;;;9.38;3.30;;;;;;;27.08;45.88;97923.78;5009926;28;20045;-70
2022/10/06 11:51:22;;;;;;;5.60;1.92;;;;;;;26.80;45.21;97920.59;4999779;28;20048;-68
2022/10/06 11:53:49;;;;;;;8.05;2.17;;;;;;;25.92;47.33;97920.53;5002903;28;20402;-68
2022/10/06 11:56:14;;;;;;;6.15;2.00;;;;;;;24.73;50.30;97914.03;4999910;28;20043;-69
2022/10/06 11:58:55;;;;;;;4.97;1.67;;;;;;;25.27;49.44;97906.50;4973532;28;20051;-68